sensor_id;sensor_type;location;lat;lon;timestamp;temperature;humidity
35325;DHT22;35135;47.510;19.036;2022-10-31T00:00:29;22.40;64.70
35325;DHT22;35135;47.510;19.036;2022-10-31T00:02:54;22.40;64.80
35325;DHT22;35135;47.510;19.036;2022-10-31T00:05:20;22.40;64.80
35325;DHT22;35135;47.510;19.036;2022-10-31T00:07:45;22.40;64.70
35325;DHT22;35135;47.510;19.036;2022-10-31T00:10:11;22.40;64.80
35325;DHT22;35135;47.510;19.036;2022-10-31T00:12:37;22.40;64.90
35325;DHT22;35135;47.510;19.036;2022-10-31T00:15:02;22.40;64.80
35325;DHT22;35135;47.510;19.036;2022-10-31T00:17:28;22.40;64.90
35325;DHT22;35135;47.510;19.036;2022-10-31T00:19:54;22.40;64.80
35325;DHT22;35135;47.510;19.036;2022-10-31T00:22:19;22.40;64.90
35325;DHT22;35135;47.510;19.036;2022-10-31T00:24:45;22.40;64.80
35325;DHT22;35135;47.510;19.036;2022-10-31T00:27:10;22.40;64.70
35325;DHT22;35135;47.510;19.036;2022-10-31T00:29:36;22.40;64.80
35325;DHT22;35135;47.510;19.036;2022-10-31T00:32:02;22.40;64.80
35325;DHT22;35135;47.510;19.036;2022-10-31T00:34:27;22.40;64.80
35325;DHT22;35135;47.510;19.036;2022-10-31T00:36:53;22.40;64.80
35325;DHT22;35135;47.510;19.036;2022-10-31T00:39:19;22.40;64.80
35325;DHT22;35135;47.510;19.036;2022-10-31T00:41:44;22.40;64.80
35325;DHT22;35135;47.510;19.036;2022-10-31T00:44:10;22.40;64.90
35325;DHT22;35135;47.510;19.036;2022-10-31T00:46:35;22.40;64.80
35325;DHT22;35135;47.510;19.036;2022-10-31T00:49:01;22.40;64.80
35325;DHT22;35135;47.510;19.036;2022-10-31T00:51:27;22.40;64.90
35325;DHT22;35135;47.510;19.036;2022-10-31T00:53:52;22.40;64.90
35325;DHT22;35135;47.510;19.036;2022-10-31T00:56:18;22.40;64.90
35325;DHT22;35135;47.510;19.036;2022-10-31T00:58:43;22.30;64.80
35325;DHT22;35135;47.510;19.036;2022-10-31T01:01:09;22.30;65.00
35325;DHT22;35135;47.510;19.036;2022-10-31T01:03:35;22.30;64.90
35325;DHT22;35135;47.510;19.036;2022-10-31T01:06:06;22.30;64.80
35325;DHT22;35135;47.510;19.036;2022-10-31T01:08:34;22.30;64.80
35325;DHT22;35135;47.510;19.036;2022-10-31T01:11:09;22.30;64.80
35325;DHT22;35135;47.510;19.036;2022-10-31T01:13:36;22.30;64.80
35325;DHT22;35135;47.510;19.036;2022-10-31T01:16:03;22.30;64.70
35325;DHT22;35135;47.510;19.036;2022-10-31T01:18:29;22.30;64.80
35325;DHT22;35135;47.510;19.036;2022-10-31T01:21:00;22.30;64.70
35325;DHT22;35135;47.510;19.036;2022-10-31T01:23:27;22.30;64.80
35325;DHT22;35135;47.510;19.036;2022-10-31T01:28:42;22.30;64.70
35325;DHT22;35135;47.510;19.036;2022-10-31T01:31:09;22.30;64.70
35325;DHT22;35135;47.510;19.036;2022-10-31T01:33:35;22.30;64.70
35325;DHT22;35135;47.510;19.036;2022-10-31T01:36:17;22.30;64.80
35325;DHT22;35135;47.510;19.036;2022-10-31T01:38:43;22.30;64.70
35325;DHT22;35135;47.510;19.036;2022-10-31T01:41:12;22.30;64.70
35325;DHT22;35135;47.510;19.036;2022-10-31T01:47:06;22.30;64.70
35325;DHT22;35135;47.510;19.036;2022-10-31T01:49:39;22.20;64.60
35325;DHT22;35135;47.510;19.036;2022-10-31T01:54:42;22.30;64.70
35325;DHT22;35135;47.510;19.036;2022-10-31T01:57:13;22.30;64.70
35325;DHT22;35135;47.510;19.036;2022-10-31T01:59:43;22.30;65.30
35325;DHT22;35135;47.510;19.036;2022-10-31T02:02:10;22.30;64.70
35325;DHT22;35135;47.510;19.036;2022-10-31T02:04:37;22.20;64.60
35325;DHT22;35135;47.510;19.036;2022-10-31T02:07:26;22.30;64.70
35325;DHT22;35135;47.510;19.036;2022-10-31T02:09:53;22.20;64.70
35325;DHT22;35135;47.510;19.036;2022-10-31T02:12:20;22.20;64.70
35325;DHT22;35135;47.510;19.036;2022-10-31T02:14:46;22.20;64.70
35325;DHT22;35135;47.510;19.036;2022-10-31T02:17:12;22.20;64.80
35325;DHT22;35135;47.510;19.036;2022-10-31T02:22:36;22.20;64.80
35325;DHT22;35135;47.510;19.036;2022-10-31T02:25:22;22.20;64.70
35325;DHT22;35135;47.510;19.036;2022-10-31T02:28:25;22.20;64.70
35325;DHT22;35135;47.510;19.036;2022-10-31T02:33:49;22.20;64.70
35325;DHT22;35135;47.510;19.036;2022-10-31T02:44:08;22.20;64.70
35325;DHT22;35135;47.510;19.036;2022-10-31T02:46:49;22.20;64.70
35325;DHT22;35135;47.510;19.036;2022-10-31T02:49:30;22.20;64.70
35325;DHT22;35135;47.510;19.036;2022-10-31T02:51:56;22.20;64.60
35325;DHT22;35135;47.510;19.036;2022-10-31T02:54:24;22.20;64.70
35325;DHT22;35135;47.510;19.036;2022-10-31T02:56:56;22.20;64.70
35325;DHT22;35135;47.510;19.036;2022-10-31T02:59:24;22.20;64.70
35325;DHT22;35135;47.510;19.036;2022-10-31T03:02:21;22.20;64.70
35325;DHT22;35135;47.510;19.036;2022-10-31T03:05:09;22.10;64.60
35325;DHT22;35135;47.510;19.036;2022-10-31T03:07:45;22.10;64.70
35325;DHT22;35135;47.510;19.036;2022-10-31T03:13:40;22.10;64.60
35325;DHT22;35135;47.510;19.036;2022-10-31T03:18:43;22.10;64.50
35325;DHT22;35135;47.510;19.036;2022-10-31T03:21:16;22.10;64.60
35325;DHT22;35135;47.510;19.036;2022-10-31T03:23:45;22.20;64.60
35325;DHT22;35135;47.510;19.036;2022-10-31T03:26:15;22.10;64.60
35325;DHT22;35135;47.510;19.036;2022-10-31T03:28:46;22.20;64.60
35325;DHT22;35135;47.510;19.036;2022-10-31T03:31:17;22.10;64.60
35325;DHT22;35135;47.510;19.036;2022-10-31T03:33:44;22.10;64.60
35325;DHT22;35135;47.510;19.036;2022-10-31T03:36:12;22.10;64.60
35325;DHT22;35135;47.510;19.036;2022-10-31T03:38:41;22.10;64.60
35325;DHT22;35135;47.510;19.036;2022-10-31T03:41:12;22.10;64.60
35325;DHT22;35135;47.510;19.036;2022-10-31T03:43:42;22.10;64.60
35325;DHT22;35135;47.510;19.036;2022-10-31T03:46:12;22.10;64.60
35325;DHT22;35135;47.510;19.036;2022-10-31T03:48:38;22.10;64.60
35325;DHT22;35135;47.510;19.036;2022-10-31T03:54:15;22.10;64.60
35325;DHT22;35135;47.510;19.036;2022-10-31T03:56:57;22.10;64.60
35325;DHT22;35135;47.510;19.036;2022-10-31T03:59:39;22.10;64.60
35325;DHT22;35135;47.510;19.036;2022-10-31T04:02:10;22.10;64.60
35325;DHT22;35135;47.510;19.036;2022-10-31T04:04:38;22.10;64.60
35325;DHT22;35135;47.510;19.036;2022-10-31T04:07:05;22.10;64.60
35325;DHT22;35135;47.510;19.036;2022-10-31T04:09:33;22.10;64.60
35325;DHT22;35135;47.510;19.036;2022-10-31T04:12:02;22.10;64.70
35325;DHT22;35135;47.510;19.036;2022-10-31T04:14:31;22.10;64.60
35325;DHT22;35135;47.510;19.036;2022-10-31T04:16:57;22.00;64.50
35325;DHT22;35135;47.510;19.036;2022-10-31T04:19:23;22.10;64.60
35325;DHT22;35135;47.510;19.036;2022-10-31T04:21:48;22.10;64.60
35325;DHT22;35135;47.510;19.036;2022-10-31T04:24:14;22.10;64.60
35325;DHT22;35135;47.510;19.036;2022-10-31T04:26:40;22.10;64.50
35325;DHT22;35135;47.510;19.036;2022-10-31T04:29:05;22.10;64.70
35325;DHT22;35135;47.510;19.036;2022-10-31T04:31:31;22.00;64.50
35325;DHT22;35135;47.510;19.036;2022-10-31T04:33:56;22.00;64.50
35325;DHT22;35135;47.510;19.036;2022-10-31T04:36:22;22.10;64.60
35325;DHT22;35135;47.510;19.036;2022-10-31T04:38:48;22.00;64.50
35325;DHT22;35135;47.510;19.036;2022-10-31T04:41:13;22.10;64.50
35325;DHT22;35135;47.510;19.036;2022-10-31T04:43:39;22.00;64.50
35325;DHT22;35135;47.510;19.036;2022-10-31T04:46:04;22.10;64.60
35325;DHT22;35135;47.510;19.036;2022-10-31T04:48:30;22.00;64.50
35325;DHT22;35135;47.510;19.036;2022-10-31T04:51:00;22.00;64.50
35325;DHT22;35135;47.510;19.036;2022-10-31T04:53:26;22.00;64.50
35325;DHT22;35135;47.510;19.036;2022-10-31T04:55:52;22.00;64.50
35325;DHT22;35135;47.510;19.036;2022-10-31T04:58:18;22.00;64.50
35325;DHT22;35135;47.510;19.036;2022-10-31T05:00:43;22.00;64.50
35325;DHT22;35135;47.510;19.036;2022-10-31T05:03:09;22.00;64.50
35325;DHT22;35135;47.510;19.036;2022-10-31T05:05:34;22.00;64.60
35325;DHT22;35135;47.510;19.036;2022-10-31T05:08:00;22.00;64.60
35325;DHT22;35135;47.510;19.036;2022-10-31T05:10:28;22.00;64.60
35325;DHT22;35135;47.510;19.036;2022-10-31T05:13:00;22.00;64.50
35325;DHT22;35135;47.510;19.036;2022-10-31T05:15:26;22.00;64.50
35325;DHT22;35135;47.510;19.036;2022-10-31T05:17:53;22.00;64.50
35325;DHT22;35135;47.510;19.036;2022-10-31T05:20:22;22.00;64.50
35325;DHT22;35135;47.510;19.036;2022-10-31T05:22:49;22.00;64.50
35325;DHT22;35135;47.510;19.036;2022-10-31T05:25:17;22.00;64.50
35325;DHT22;35135;47.510;19.036;2022-10-31T05:27:45;22.00;64.50
35325;DHT22;35135;47.510;19.036;2022-10-31T05:30:13;22.00;64.40
35325;DHT22;35135;47.510;19.036;2022-10-31T05:32:41;22.00;64.50
35325;DHT22;35135;47.510;19.036;2022-10-31T05:35:09;22.00;64.40
35325;DHT22;35135;47.510;19.036;2022-10-31T05:37:35;22.00;64.50
35325;DHT22;35135;47.510;19.036;2022-10-31T05:40:03;22.00;64.40
35325;DHT22;35135;47.510;19.036;2022-10-31T05:42:29;22.00;64.40
35325;DHT22;35135;47.510;19.036;2022-10-31T05:44:55;22.00;64.50
35325;DHT22;35135;47.510;19.036;2022-10-31T05:47:20;22.00;64.50
35325;DHT22;35135;47.510;19.036;2022-10-31T05:49:46;22.00;64.50
35325;DHT22;35135;47.510;19.036;2022-10-31T05:52:12;22.00;64.40
35325;DHT22;35135;47.510;19.036;2022-10-31T05:54:37;22.00;64.40
35325;DHT22;35135;47.510;19.036;2022-10-31T05:57:03;22.00;64.40
35325;DHT22;35135;47.510;19.036;2022-10-31T05:59:28;22.00;64.40
35325;DHT22;35135;47.510;19.036;2022-10-31T06:01:54;22.00;64.50
35325;DHT22;35135;47.510;19.036;2022-10-31T06:04:20;22.00;64.50
35325;DHT22;35135;47.510;19.036;2022-10-31T06:06:45;22.00;64.50
35325;DHT22;35135;47.510;19.036;2022-10-31T06:09:11;22.00;64.50
35325;DHT22;35135;47.510;19.036;2022-10-31T06:11:36;22.00;64.40
35325;DHT22;35135;47.510;19.036;2022-10-31T06:14:03;22.00;64.40
35325;DHT22;35135;47.510;19.036;2022-10-31T06:16:29;22.00;64.40
35325;DHT22;35135;47.510;19.036;2022-10-31T06:18:54;22.00;64.40
35325;DHT22;35135;47.510;19.036;2022-10-31T06:21:20;22.00;64.50
35325;DHT22;35135;47.510;19.036;2022-10-31T06:23:46;22.00;64.50
35325;DHT22;35135;47.510;19.036;2022-10-31T06:26:11;22.00;64.40
35325;DHT22;35135;47.510;19.036;2022-10-31T06:28:37;21.90;64.40
35325;DHT22;35135;47.510;19.036;2022-10-31T06:31:02;22.00;64.60
35325;DHT22;35135;47.510;19.036;2022-10-31T06:33:28;22.00;64.60
35325;DHT22;35135;47.510;19.036;2022-10-31T06:35:54;22.00;64.50
35325;DHT22;35135;47.510;19.036;2022-10-31T06:38:19;22.00;64.50
35325;DHT22;35135;47.510;19.036;2022-10-31T06:40:45;22.00;64.50
35325;DHT22;35135;47.510;19.036;2022-10-31T06:43:10;22.00;64.60
35325;DHT22;35135;47.510;19.036;2022-10-31T06:45:36;22.00;64.70
35325;DHT22;35135;47.510;19.036;2022-10-31T06:48:03;22.00;64.80
35325;DHT22;35135;47.510;19.036;2022-10-31T06:50:28;22.00;64.50
35325;DHT22;35135;47.510;19.036;2022-10-31T06:52:56;22.00;64.50
35325;DHT22;35135;47.510;19.036;2022-10-31T06:55:22;22.00;64.50
35325;DHT22;35135;47.510;19.036;2022-10-31T06:57:56;22.00;64.60
35325;DHT22;35135;47.510;19.036;2022-10-31T07:00:23;22.00;64.60
35325;DHT22;35135;47.510;19.036;2022-10-31T07:03:00;22.00;64.60
35325;DHT22;35135;47.510;19.036;2022-10-31T07:05:27;22.00;64.60
35325;DHT22;35135;47.510;19.036;2022-10-31T07:07:58;22.00;64.60
35325;DHT22;35135;47.510;19.036;2022-10-31T07:10:25;21.90;64.50
35325;DHT22;35135;47.510;19.036;2022-10-31T07:12:59;21.90;64.60
35325;DHT22;35135;47.510;19.036;2022-10-31T07:15:26;22.00;64.70
35325;DHT22;35135;47.510;19.036;2022-10-31T07:17:52;22.00;64.60
35325;DHT22;35135;47.510;19.036;2022-10-31T07:20:18;22.00;64.50
35325;DHT22;35135;47.510;19.036;2022-10-31T07:22:44;22.00;64.60
35325;DHT22;35135;47.510;19.036;2022-10-31T07:25:10;22.00;64.50
35325;DHT22;35135;47.510;19.036;2022-10-31T07:27:37;22.00;64.50
35325;DHT22;35135;47.510;19.036;2022-10-31T07:30:04;22.00;64.50
35325;DHT22;35135;47.510;19.036;2022-10-31T07:32:40;22.00;64.50
35325;DHT22;35135;47.510;19.036;2022-10-31T07:35:08;22.00;64.50
35325;DHT22;35135;47.510;19.036;2022-10-31T07:37:34;22.00;64.50
35325;DHT22;35135;47.510;19.036;2022-10-31T07:40:00;22.00;64.50
35325;DHT22;35135;47.510;19.036;2022-10-31T07:42:26;22.00;64.50
35325;DHT22;35135;47.510;19.036;2022-10-31T07:44:52;21.90;64.60
35325;DHT22;35135;47.510;19.036;2022-10-31T07:47:18;22.00;64.50
35325;DHT22;35135;47.510;19.036;2022-10-31T07:49:43;22.00;64.50
35325;DHT22;35135;47.510;19.036;2022-10-31T07:52:09;22.00;64.50
35325;DHT22;35135;47.510;19.036;2022-10-31T07:54:35;21.90;64.50
35325;DHT22;35135;47.510;19.036;2022-10-31T07:57:00;21.90;64.50
35325;DHT22;35135;47.510;19.036;2022-10-31T07:59:26;22.00;64.40
35325;DHT22;35135;47.510;19.036;2022-10-31T08:01:53;22.00;64.40
35325;DHT22;35135;47.510;19.036;2022-10-31T08:04:19;22.00;64.50
35325;DHT22;35135;47.510;19.036;2022-10-31T08:06:45;22.00;64.40
35325;DHT22;35135;47.510;19.036;2022-10-31T08:09:10;22.00;64.40
35325;DHT22;35135;47.510;19.036;2022-10-31T08:11:36;22.00;64.30
35325;DHT22;35135;47.510;19.036;2022-10-31T08:14:02;22.10;64.60
35325;DHT22;35135;47.510;19.036;2022-10-31T08:16:27;22.00;64.40
35325;DHT22;35135;47.510;19.036;2022-10-31T08:18:53;22.00;64.40
35325;DHT22;35135;47.510;19.036;2022-10-31T08:21:21;22.10;64.40
35325;DHT22;35135;47.510;19.036;2022-10-31T08:23:47;22.00;64.90
35325;DHT22;35135;47.510;19.036;2022-10-31T08:26:12;22.00;64.30
35325;DHT22;35135;47.510;19.036;2022-10-31T08:28:38;22.00;64.10
35325;DHT22;35135;47.510;19.036;2022-10-31T08:31:04;22.00;64.20
35325;DHT22;35135;47.510;19.036;2022-10-31T08:33:30;22.00;64.50
35325;DHT22;35135;47.510;19.036;2022-10-31T08:35:58;22.00;62.40
35325;DHT22;35135;47.510;19.036;2022-10-31T08:38:23;21.90;61.20
35325;DHT22;35135;47.510;19.036;2022-10-31T08:40:49;21.80;60.90
35325;DHT22;35135;47.510;19.036;2022-10-31T08:43:16;21.80;61.40
35325;DHT22;35135;47.510;19.036;2022-10-31T08:45:43;21.70;62.10
35325;DHT22;35135;47.510;19.036;2022-10-31T08:48:16;21.70;62.40
35325;DHT22;35135;47.510;19.036;2022-10-31T08:50:42;21.70;62.00
35325;DHT22;35135;47.510;19.036;2022-10-31T08:53:17;21.80;62.20
35325;DHT22;35135;47.510;19.036;2022-10-31T08:55:44;21.80;62.00
35325;DHT22;35135;47.510;19.036;2022-10-31T08:58:20;21.80;62.00
35325;DHT22;35135;47.510;19.036;2022-10-31T09:00:49;21.80;62.10
35325;DHT22;35135;47.510;19.036;2022-10-31T09:03:17;21.80;62.10
35325;DHT22;35135;47.510;19.036;2022-10-31T09:05:44;21.80;62.20
35325;DHT22;35135;47.510;19.036;2022-10-31T09:08:11;21.80;62.20
35325;DHT22;35135;47.510;19.036;2022-10-31T09:10:37;21.80;62.20
35325;DHT22;35135;47.510;19.036;2022-10-31T09:13:09;21.80;62.30
35325;DHT22;35135;47.510;19.036;2022-10-31T09:15:36;21.80;62.40
35325;DHT22;35135;47.510;19.036;2022-10-31T09:18:04;21.80;62.40
35325;DHT22;35135;47.510;19.036;2022-10-31T09:20:31;21.90;62.50
35325;DHT22;35135;47.510;19.036;2022-10-31T09:23:02;21.80;62.40
35325;DHT22;35135;47.510;19.036;2022-10-31T09:25:29;21.80;62.40
35325;DHT22;35135;47.510;19.036;2022-10-31T09:27:59;21.80;62.50
35325;DHT22;35135;47.510;19.036;2022-10-31T09:30:26;21.80;62.50
35325;DHT22;35135;47.510;19.036;2022-10-31T09:32:59;21.80;62.60
35325;DHT22;35135;47.510;19.036;2022-10-31T09:35:26;21.80;62.60
35325;DHT22;35135;47.510;19.036;2022-10-31T09:37:59;21.80;62.60
35325;DHT22;35135;47.510;19.036;2022-10-31T09:40:34;21.80;62.60
35325;DHT22;35135;47.510;19.036;2022-10-31T09:46:06;21.80;62.70
35325;DHT22;35135;47.510;19.036;2022-10-31T09:51:34;21.80;62.70
35325;DHT22;35135;47.510;19.036;2022-10-31T09:56:34;21.80;62.80
35325;DHT22;35135;47.510;19.036;2022-10-31T09:59:02;21.80;62.70
35325;DHT22;35135;47.510;19.036;2022-10-31T10:01:49;21.90;62.80
35325;DHT22;35135;47.510;19.036;2022-10-31T10:07:05;21.80;62.80
35325;DHT22;35135;47.510;19.036;2022-10-31T10:09:32;21.80;62.80
35325;DHT22;35135;47.510;19.036;2022-10-31T10:12:08;21.80;62.80
35325;DHT22;35135;47.510;19.036;2022-10-31T10:15:06;21.80;62.80
35325;DHT22;35135;47.510;19.036;2022-10-31T10:17:50;21.80;62.90
35325;DHT22;35135;47.510;19.036;2022-10-31T10:23:18;21.80;62.80
35325;DHT22;35135;47.510;19.036;2022-10-31T10:25:49;21.80;62.90
35325;DHT22;35135;47.510;19.036;2022-10-31T10:28:27;21.80;62.80
35325;DHT22;35135;47.510;19.036;2022-10-31T10:31:07;21.80;62.80
35325;DHT22;35135;47.510;19.036;2022-10-31T10:36:37;21.80;62.90
35325;DHT22;35135;47.510;19.036;2022-10-31T10:39:15;21.80;62.90
35325;DHT22;35135;47.510;19.036;2022-10-31T10:41:44;21.80;62.90
35325;DHT22;35135;47.510;19.036;2022-10-31T10:44:11;21.80;62.90
35325;DHT22;35135;47.510;19.036;2022-10-31T10:46:56;21.80;62.90
35325;DHT22;35135;47.510;19.036;2022-10-31T10:49:46;21.80;62.90
35325;DHT22;35135;47.510;19.036;2022-10-31T10:52:39;21.80;62.90
35325;DHT22;35135;47.510;19.036;2022-10-31T10:55:15;21.80;62.90
35325;DHT22;35135;47.510;19.036;2022-10-31T10:57:52;21.80;62.90
35325;DHT22;35135;47.510;19.036;2022-10-31T11:00:28;21.80;62.90
35325;DHT22;35135;47.510;19.036;2022-10-31T11:02:55;21.80;62.90
35325;DHT22;35135;47.510;19.036;2022-10-31T11:05:35;21.80;62.90
35325;DHT22;35135;47.510;19.036;2022-10-31T11:08:02;21.80;62.90
35325;DHT22;35135;47.510;19.036;2022-10-31T11:10:28;21.80;63.00
35325;DHT22;35135;47.510;19.036;2022-10-31T11:13:14;21.80;62.90
35325;DHT22;35135;47.510;19.036;2022-10-31T11:18:46;21.80;63.00
35325;DHT22;35135;47.510;19.036;2022-10-31T11:21:24;21.80;62.90
35325;DHT22;35135;47.510;19.036;2022-10-31T11:24:23;21.80;62.90
35325;DHT22;35135;47.510;19.036;2022-10-31T11:26:50;21.80;63.60
35325;DHT22;35135;47.510;19.036;2022-10-31T11:29:25;21.80;62.90
35325;DHT22;35135;47.510;19.036;2022-10-31T11:31:58;21.80;62.90
35325;DHT22;35135;47.510;19.036;2022-10-31T11:34:46;21.80;62.90
35325;DHT22;35135;47.510;19.036;2022-10-31T11:37:18;21.80;63.00
35325;DHT22;35135;47.510;19.036;2022-10-31T11:39:49;21.80;63.00
35325;DHT22;35135;47.510;19.036;2022-10-31T11:42:23;21.80;62.90
35325;DHT22;35135;47.510;19.036;2022-10-31T11:44:50;21.80;62.90
35325;DHT22;35135;47.510;19.036;2022-10-31T11:47:17;21.80;62.90
35325;DHT22;35135;47.510;19.036;2022-10-31T11:49:48;21.80;62.90
35325;DHT22;35135;47.510;19.036;2022-10-31T11:52:38;21.80;62.90
35325;DHT22;35135;47.510;19.036;2022-10-31T12:00:29;21.80;62.90
35325;DHT22;35135;47.510;19.036;2022-10-31T12:05:44;21.80;62.90
35325;DHT22;35135;47.510;19.036;2022-10-31T12:08:12;21.80;63.00
35325;DHT22;35135;47.510;19.036;2022-10-31T12:14:14;21.80;62.90
35325;DHT22;35135;47.510;19.036;2022-10-31T12:30:13;21.80;63.00
35325;DHT22;35135;47.510;19.036;2022-10-31T12:44:05;21.80;63.00
35325;DHT22;35135;47.510;19.036;2022-10-31T12:53:07;21.80;63.00
35325;DHT22;35135;47.510;19.036;2022-10-31T12:58:35;21.80;63.00
35325;DHT22;35135;47.510;19.036;2022-10-31T13:06:42;21.70;62.90
35325;DHT22;35135;47.510;19.036;2022-10-31T13:09:13;21.70;63.00
35325;DHT22;35135;47.510;19.036;2022-10-31T13:11:47;21.80;63.00
35325;DHT22;35135;47.510;19.036;2022-10-31T13:16:45;21.70;63.00
35325;DHT22;35135;47.510;19.036;2022-10-31T13:19:35;21.70;63.00
35325;DHT22;35135;47.510;19.036;2022-10-31T13:22:24;21.70;63.00
35325;DHT22;35135;47.510;19.036;2022-10-31T13:24:56;21.70;63.00
35325;DHT22;35135;47.510;19.036;2022-10-31T13:27:29;21.70;63.00
35325;DHT22;35135;47.510;19.036;2022-10-31T13:32:44;21.70;63.00
35325;DHT22;35135;47.510;19.036;2022-10-31T13:35:19;21.70;63.00
35325;DHT22;35135;47.510;19.036;2022-10-31T13:37:51;21.70;63.00
35325;DHT22;35135;47.510;19.036;2022-10-31T13:40:48;21.70;63.00
35325;DHT22;35135;47.510;19.036;2022-10-31T13:43:24;21.70;63.00
35325;DHT22;35135;47.510;19.036;2022-10-31T13:45:55;21.70;63.00
35325;DHT22;35135;47.510;19.036;2022-10-31T13:48:34;21.70;63.00
35325;DHT22;35135;47.510;19.036;2022-10-31T13:51:09;21.70;63.00
35325;DHT22;35135;47.510;19.036;2022-10-31T13:58:33;21.70;63.00
35325;DHT22;35135;47.510;19.036;2022-10-31T14:03:36;21.70;63.00
35325;DHT22;35135;47.510;19.036;2022-10-31T14:06:03;21.70;63.00
35325;DHT22;35135;47.510;19.036;2022-10-31T14:08:32;21.70;63.00
35325;DHT22;35135;47.510;19.036;2022-10-31T14:10:58;21.70;63.00
35325;DHT22;35135;47.510;19.036;2022-10-31T14:13:26;21.70;63.00
35325;DHT22;35135;47.510;19.036;2022-10-31T14:18:37;21.70;63.00
35325;DHT22;35135;47.510;19.036;2022-10-31T14:23:48;21.70;63.00
35325;DHT22;35135;47.510;19.036;2022-10-31T14:26:29;21.70;63.10
35325;DHT22;35135;47.510;19.036;2022-10-31T14:29:30;21.70;63.00
35325;DHT22;35135;47.510;19.036;2022-10-31T14:34:41;21.70;63.00
35325;DHT22;35135;47.510;19.036;2022-10-31T14:53:22;21.80;63.50
35325;DHT22;35135;47.510;19.036;2022-10-31T14:55:51;21.80;63.40
35325;DHT22;35135;47.510;19.036;2022-10-31T14:58:34;21.80;63.20
35325;DHT22;35135;47.510;19.036;2022-10-31T15:01:01;21.80;63.30
35325;DHT22;35135;47.510;19.036;2022-10-31T15:03:31;21.80;63.30
35325;DHT22;35135;47.510;19.036;2022-10-31T15:06:20;21.80;63.40
35325;DHT22;35135;47.510;19.036;2022-10-31T15:08:51;21.80;63.40
35325;DHT22;35135;47.510;19.036;2022-10-31T15:11:20;21.80;63.30
35325;DHT22;35135;47.510;19.036;2022-10-31T15:13:48;21.80;63.30
35325;DHT22;35135;47.510;19.036;2022-10-31T15:16:17;21.80;63.30
35325;DHT22;35135;47.510;19.036;2022-10-31T15:21:19;21.80;63.20
35325;DHT22;35135;47.510;19.036;2022-10-31T15:23:46;21.80;63.30
35325;DHT22;35135;47.510;19.036;2022-10-31T15:26:20;21.80;63.20
35325;DHT22;35135;47.510;19.036;2022-10-31T15:29:04;21.80;63.20
35325;DHT22;35135;47.510;19.036;2022-10-31T15:31:30;21.80;63.20
35325;DHT22;35135;47.510;19.036;2022-10-31T15:34:02;21.80;63.30
35325;DHT22;35135;47.510;19.036;2022-10-31T15:36:28;21.80;63.20
35325;DHT22;35135;47.510;19.036;2022-10-31T15:38:56;21.80;63.40
35325;DHT22;35135;47.510;19.036;2022-10-31T15:41:32;21.80;63.40
35325;DHT22;35135;47.510;19.036;2022-10-31T15:44:14;21.80;63.40
35325;DHT22;35135;47.510;19.036;2022-10-31T15:46:40;21.80;63.40
35325;DHT22;35135;47.510;19.036;2022-10-31T15:51:53;21.80;63.50
35325;DHT22;35135;47.510;19.036;2022-10-31T15:54:19;21.80;63.50
35325;DHT22;35135;47.510;19.036;2022-10-31T15:56:45;21.80;63.40
35325;DHT22;35135;47.510;19.036;2022-10-31T15:59:22;21.80;63.40
35325;DHT22;35135;47.510;19.036;2022-10-31T16:02:02;21.80;63.30
35325;DHT22;35135;47.510;19.036;2022-10-31T16:04:29;21.80;63.30
35325;DHT22;35135;47.510;19.036;2022-10-31T16:07:16;21.80;63.40
35325;DHT22;35135;47.510;19.036;2022-10-31T16:10:21;21.80;63.30
35325;DHT22;35135;47.510;19.036;2022-10-31T16:12:47;21.80;63.30
35325;DHT22;35135;47.510;19.036;2022-10-31T16:15:15;21.80;63.30
35325;DHT22;35135;47.510;19.036;2022-10-31T16:17:42;21.80;63.50
35325;DHT22;35135;47.510;19.036;2022-10-31T16:20:19;21.80;63.50
35325;DHT22;35135;47.510;19.036;2022-10-31T16:22:49;21.80;63.50
35325;DHT22;35135;47.510;19.036;2022-10-31T16:25:48;21.80;63.60
35325;DHT22;35135;47.510;19.036;2022-10-31T16:28:17;21.90;63.70
35325;DHT22;35135;47.510;19.036;2022-10-31T16:30:45;21.80;64.00
35325;DHT22;35135;47.510;19.036;2022-10-31T16:33:33;21.80;64.30
35325;DHT22;35135;47.510;19.036;2022-10-31T16:38:53;21.90;64.10
35325;DHT22;35135;47.510;19.036;2022-10-31T16:41:19;21.90;64.10
35325;DHT22;35135;47.510;19.036;2022-10-31T16:43:44;21.90;64.10
35325;DHT22;35135;47.510;19.036;2022-10-31T16:46:21;21.90;64.30
35325;DHT22;35135;47.510;19.036;2022-10-31T16:48:47;21.90;64.50
35325;DHT22;35135;47.510;19.036;2022-10-31T16:51:13;21.90;64.50
35325;DHT22;35135;47.510;19.036;2022-10-31T16:53:38;21.90;64.40
35325;DHT22;35135;47.510;19.036;2022-10-31T16:56:04;21.90;64.40
35325;DHT22;35135;47.510;19.036;2022-10-31T16:58:34;21.90;64.50
35325;DHT22;35135;47.510;19.036;2022-10-31T17:01:02;21.90;64.20
35325;DHT22;35135;47.510;19.036;2022-10-31T17:03:29;21.90;64.20
35325;DHT22;35135;47.510;19.036;2022-10-31T17:05:55;21.90;64.10
35325;DHT22;35135;47.510;19.036;2022-10-31T17:08:22;21.90;64.10
35325;DHT22;35135;47.510;19.036;2022-10-31T17:10:52;21.90;64.10
35325;DHT22;35135;47.510;19.036;2022-10-31T17:13:21;21.90;64.10
35325;DHT22;35135;47.510;19.036;2022-10-31T17:15:51;21.90;64.10
35325;DHT22;35135;47.510;19.036;2022-10-31T17:18:18;21.90;64.10
35325;DHT22;35135;47.510;19.036;2022-10-31T17:20:44;21.90;64.10
35325;DHT22;35135;47.510;19.036;2022-10-31T17:23:12;21.90;64.00
35325;DHT22;35135;47.510;19.036;2022-10-31T17:25:38;21.90;64.10
35325;DHT22;35135;47.510;19.036;2022-10-31T17:28:05;21.90;64.00
35325;DHT22;35135;47.510;19.036;2022-10-31T17:30:31;21.90;63.90
35325;DHT22;35135;47.510;19.036;2022-10-31T17:32:58;21.90;63.90
35325;DHT22;35135;47.510;19.036;2022-10-31T17:35:24;21.90;63.90
35325;DHT22;35135;47.510;19.036;2022-10-31T17:37:50;21.90;63.90
35325;DHT22;35135;47.510;19.036;2022-10-31T17:40:18;21.90;63.80
35325;DHT22;35135;47.510;19.036;2022-10-31T17:42:50;21.90;63.90
35325;DHT22;35135;47.510;19.036;2022-10-31T17:45:16;21.90;64.30
35325;DHT22;35135;47.510;19.036;2022-10-31T17:47:42;21.90;64.30
35325;DHT22;35135;47.510;19.036;2022-10-31T17:50:08;21.90;64.50
35325;DHT22;35135;47.510;19.036;2022-10-31T17:52:34;21.90;64.50
35325;DHT22;35135;47.510;19.036;2022-10-31T17:54:59;21.90;64.60
35325;DHT22;35135;47.510;19.036;2022-10-31T17:57:25;21.90;64.60
35325;DHT22;35135;47.510;19.036;2022-10-31T17:59:50;21.90;64.40